Time;durP1;ratioP1;P1;durP2;ratioP2;P2;SDS_P1;SDS_P2;PMS_P1;PMS_P2;Temp;Humidity;BMP_temperature;BMP_pressure;BME280_temperature;BME280_humidity;BME280_pressure;Samples;Min_cycle;Max_cycle;Signal;HPM_P1;HPM_P2
2021/12/03 00:01:32;;;;;;;1.25;0.77;;;;;;;15.49;54.39;95256.22;5033277;28;20096;-30
2021/12/03 00:03:59;;;;;;;1.15;0.80;;;;;;;15.50;54.52;95246.78;5033508;28;20022;-30
2021/12/03 00:06:24;;;;;;;1.88;0.85;;;;;;;15.45;54.67;95239.31;5033175;28;20032;-30
2021/12/03 00:08:50;;;;;;;1.20;0.57;;;;;;;15.44;54.88;95244.03;5033333;28;20451;-30
2021/12/03 00:11:16;;;;;;;0.85;0.65;;;;;;;15.38;54.78;95228.81;5033280;28;20379;-30
2021/12/03 00:13:42;;;;;;;1.20;0.77;;;;;;;15.44;54.70;95238.56;5032928;28;20472;-30
2021/12/03 00:16:09;;;;;;;1.15;0.70;;;;;;;15.45;54.56;95233.84;5037130;28;20055;-30
2021/12/03 00:18:34;;;;;;;1.48;0.70;;;;;;;15.45;54.73;95234.56;5035793;28;20120;-30
2021/12/03 00:21:06;;;;;;;0.82;0.60;;;;;;;15.39;54.65;95227.59;5037148;28;20100;-30
2021/12/03 00:23:31;;;;;;;1.25;0.60;;;;;;;15.44;54.55;95233.09;5037087;28;20018;-30
2021/12/03 00:26:00;;;;;;;1.30;0.80;;;;;;;15.41;54.60;95227.84;5035149;28;20029;-30
2021/12/03 00:28:29;;;;;;;0.93;0.68;;;;;;;15.41;54.56;95231.34;5024298;28;20370;-30
2021/12/03 00:30:56;;;;;;;0.90;0.60;;;;;;;15.38;54.46;95228.81;5036480;28;20029;-30
2021/12/03 00:33:22;;;;;;;1.13;0.82;;;;;;;15.36;54.71;95228.56;5037045;28;20025;-30
2021/12/03 00:35:47;;;;;;;2.92;0.70;;;;;;;15.37;54.48;95228.06;5036728;28;20032;-30
2021/12/03 00:38:15;;;;;;;1.08;0.65;;;;;;;15.35;54.75;95230.53;5036689;28;20018;-30
2021/12/03 00:40:40;;;;;;;1.50;0.82;;;;;;;15.43;54.40;95230.84;5036724;28;20022;-30
2021/12/03 00:43:07;;;;;;;1.00;0.60;;;;;;;15.42;54.53;95232.84;5036584;28;20029;-30
2021/12/03 00:45:33;;;;;;;0.95;0.50;;;;;;;15.40;54.59;95229.84;5036455;28;20029;-30
2021/12/03 00:48:00;;;;;;;2.55;0.88;;;;;;;15.40;54.48;95234.56;5036476;28;20075;-30
2021/12/03 00:50:27;;;;;;;1.25;0.60;;;;;;;15.32;54.70;95237.00;5036472;28;20391;-30
2021/12/03 00:52:53;;;;;;;0.85;0.63;;;;;;;15.29;54.73;95248.13;5036590;28;20574;-30
2021/12/03 00:55:20;;;;;;;1.13;0.77;;;;;;;15.36;54.71;95248.41;5036313;28;20360;-30
2021/12/03 00:57:46;;;;;;;0.50;0.40;;;;;;;15.34;54.51;95261.81;5036276;28;20060;-30
2021/12/03 01:00:16;;;;;;;1.50;0.52;;;;;;;15.33;54.42;95259.59;5036278;28;20029;-30
2021/12/03 01:02:41;;;;;;;0.75;0.55;;;;;;;15.34;54.49;95253.63;5036070;28;20045;-30
2021/12/03 01:05:07;;;;;;;0.63;0.50;;;;;;;15.32;54.53;95247.91;5036894;28;20071;-30
2021/12/03 01:07:33;;;;;;;1.52;0.57;;;;;;;15.31;54.60;95251.13;5035986;28;20067;-30
2021/12/03 01:09:59;;;;;;;1.38;0.68;;;;;;;15.32;54.47;95247.16;5036119;28;20057;-30
2021/12/03 01:12:25;;;;;;;1.30;0.70;;;;;;;15.33;54.57;95249.38;5036377;28;20452;-30
2021/12/03 01:14:50;;;;;;;0.80;0.47;;;;;;;15.31;54.54;95254.59;5036235;28;20032;-30
2021/12/03 01:17:16;;;;;;;0.70;0.50;;;;;;;15.32;54.41;95255.34;5036024;28;20033;-30
2021/12/03 01:19:42;;;;;;;1.67;0.60;;;;;;;15.30;54.50;95250.38;5035892;28;20036;-30
2021/12/03 01:22:07;;;;;;;2.30;0.70;;;;;;;15.28;54.47;95252.09;5035891;28;20022;-30
2021/12/03 01:24:33;;;;;;;1.15;0.45;;;;;;;15.30;54.46;95257.81;5035769;28;20036;-30
2021/12/03 01:26:59;;;;;;;2.15;0.85;;;;;;;15.32;54.06;95264.31;5035466;28;20021;-30
2021/12/03 01:29:25;;;;;;;0.90;0.52;;;;;;;15.27;54.50;95270.47;5035591;28;20017;-30
2021/12/03 01:31:53;;;;;;;1.17;0.60;;;;;;;15.29;54.20;95275.44;5034270;28;20048;-30
2021/12/03 01:34:19;;;;;;;0.77;0.60;;;;;;;15.27;54.12;95273.19;5035504;28;20021;-30
2021/12/03 01:36:45;;;;;;;1.55;0.98;;;;;;;15.28;54.29;95274.69;5035619;28;20383;-30
2021/12/03 01:39:12;;;;;;;0.95;0.43;;;;;;;15.23;54.37;95283.56;5035495;28;20079;-30
2021/12/03 01:41:38;;;;;;;3.42;0.60;;;;;;;15.19;54.45;95272.16;5035440;28;20026;-30
2021/12/03 01:44:04;;;;;;;0.90;0.50;;;;;;;15.25;54.32;95267.47;5035409;28;20065;-30
2021/12/03 01:46:31;;;;;;;0.82;0.38;;;;;;;15.27;53.97;95267.72;5035521;28;20049;-30
2021/12/03 01:48:58;;;;;;;1.75;0.50;;;;;;;15.23;54.31;95264.47;5035339;28;20029;-30
2021/12/03 01:51:24;;;;;;;1.20;0.82;;;;;;;15.25;54.20;95266.72;5035135;28;20021;-30
2021/12/03 01:53:51;;;;;;;1.70;0.60;;;;;;;15.21;54.32;95275.13;5034057;28;20029;-30
2021/12/03 01:56:17;;;;;;;1.58;0.40;;;;;;;15.24;54.12;95270.66;5035232;28;20021;-30
2021/12/03 01:58:45;;;;;;;0.68;0.40;;;;;;;15.26;54.04;95271.69;5035003;28;20133;-30
2021/12/03 02:01:14;;;;;;;0.98;0.60;;;;;;;15.28;54.13;95271.97;5033836;28;20052;-30
2021/12/03 02:03:42;;;;;;;0.82;0.50;;;;;;;15.24;54.24;95270.66;5035046;28;20025;-30
2021/12/03 02:06:10;;;;;;;0.80;0.40;;;;;;;15.24;54.17;95267.94;5034949;28;20021;-30
2021/12/03 02:08:36;;;;;;;0.80;0.40;;;;;;;15.23;54.03;95285.56;5035298;28;20124;-30
2021/12/03 02:11:03;;;;;;;2.45;0.43;;;;;;;15.22;54.05;95284.06;5034918;28;20053;-30
2021/12/03 02:13:30;;;;;;;0.90;0.40;;;;;;;15.27;53.97;95289.59;5033971;28;20026;-30
2021/12/03 02:15:56;;;;;;;1.50;0.40;;;;;;;15.25;53.95;95291.28;5034755;28;20486;-30
2021/12/03 02:18:21;;;;;;;1.65;0.60;;;;;;;15.19;54.19;95287.78;5034839;28;20041;-30
2021/12/03 02:20:51;;;;;;;0.75;0.30;;;;;;;15.20;54.15;95289.28;5034768;28;20043;-30
2021/12/03 02:23:19;;;;;;;2.88;0.43;;;;;;;15.21;54.01;95288.78;5034848;28;20033;-30
2021/12/03 02:25:45;;;;;;;1.15;0.40;;;;;;;15.20;54.30;95290.03;5034722;28;20029;-30
2021/12/03 02:28:12;;;;;;;0.30;0.30;;;;;;;15.21;54.04;95296.22;5034685;28;20430;-30
2021/12/03 02:30:38;;;;;;;0.80;0.40;;;;;;;15.16;54.16;95300.41;5034854;28;20032;-30
2021/12/03 02:33:04;;;;;;;1.33;0.60;;;;;;;15.22;53.91;95294.97;5034578;28;20029;-30
2021/12/03 02:35:29;;;;;;;0.88;0.47;;;;;;;15.19;53.80;95302.19;5034709;28;20021;-30
2021/12/03 02:37:56;;;;;;;1.77;0.55;;;;;;;15.20;53.88;95292.00;5033974;28;20022;-30
2021/12/03 02:40:24;;;;;;;2.25;0.45;;;;;;;15.16;54.06;95284.03;5034422;28;20067;-30
2021/12/03 02:42:51;;;;;;;1.10;0.40;;;;;;;15.21;53.61;95286.03;5034413;28;20108;-30
2021/12/03 02:45:18;;;;;;;0.68;0.45;;;;;;;15.19;53.95;95283.06;5034358;28;20156;-30
2021/12/03 02:47:44;;;;;;;1.10;0.40;;;;;;;15.23;53.82;95277.38;5033068;28;20521;-30
2021/12/03 02:50:11;;;;;;;1.13;0.40;;;;;;;15.18;53.79;95270.66;5034338;28;20029;-30
2021/12/03 02:52:37;;;;;;;1.38;0.40;;;;;;;15.14;54.07;95280.28;5034018;28;20026;-30
2021/12/03 02:55:04;;;;;;;1.55;0.68;;;;;;;15.20;53.57;95273.66;5034284;28;20025;-30
2021/12/03 02:57:29;;;;;;;1.35;0.57;;;;;;;15.14;53.82;95289.22;5034275;28;20049;-30
2021/12/03 02:59:55;;;;;;;1.20;0.35;;;;;;;15.12;53.71;95288.94;5034216;28;20083;-30
2021/12/03 03:02:21;;;;;;;1.83;0.50;;;;;;;15.09;53.93;95289.91;5034354;28;20025;-30
2021/12/03 03:04:46;;;;;;;1.08;0.40;;;;;;;15.10;53.65;95285.94;5033085;28;20033;-30
2021/12/03 03:07:11;;;;;;;2.55;0.68;;;;;;;15.12;53.88;95286.22;5034054;28;20032;-30
2021/12/03 03:09:38;;;;;;;1.55;0.40;;;;;;;15.09;53.71;95296.13;5033873;28;20025;-30
2021/12/03 03:12:03;;;;;;;0.82;0.52;;;;;;;15.19;53.47;95304.16;5033711;28;20029;-30
2021/12/03 03:14:29;;;;;;;0.70;0.47;;;;;;;15.10;53.63;95302.34;5033802;28;20041;-30
2021/12/03 03:16:56;;;;;;;0.98;0.43;;;;;;;15.08;53.62;95304.81;5033988;28;20044;-30
2021/12/03 03:19:24;;;;;;;1.80;0.40;;;;;;;15.09;53.64;95298.09;5034079;28;20026;-31
2021/12/03 03:21:50;;;;;;;0.77;0.50;;;;;;;15.07;53.57;95298.59;5033896;28;20056;-30
2021/12/03 03:24:18;;;;;;;0.30;0.30;;;;;;;15.11;53.59;95306.56;5033719;28;20049;-30
2021/12/03 03:26:45;;;;;;;1.85;0.50;;;;;;;15.08;53.63;95315.75;5033714;28;20104;-30
2021/12/03 03:29:13;;;;;;;0.60;0.30;;;;;;;15.07;53.59;95314.25;5033397;28;20030;-30
2021/12/03 03:31:39;;;;;;;0.60;0.40;;;;;;;15.12;53.50;95324.44;5033491;28;20028;-30
2021/12/03 03:34:06;;;;;;;0.90;0.32;;;;;;;15.16;53.27;95332.44;5033591;28;20395;-30
2021/12/03 03:36:33;;;;;;;0.80;0.40;;;;;;;15.12;53.32;95332.66;5033388;28;20025;-30
2021/12/03 03:38:59;;;;;;;0.80;0.40;;;;;;;15.14;53.52;95335.66;5033440;28;20032;-30
2021/12/03 03:41:25;;;;;;;1.90;0.47;;;;;;;15.12;53.44;95340.84;5033150;28;20024;-30
2021/12/03 03:43:50;;;;;;;1.90;0.47;;;;;;;15.08;53.69;95348.50;5033561;28;20026;-30
2021/12/03 03:46:15;;;;;;;2.25;0.60;;;;;;;15.11;53.40;95355.72;5033274;28;20033;-30
2021/12/03 03:48:41;;;;;;;1.50;0.40;;;;;;;15.10;53.45;95360.44;5033181;28;20094;-30
2021/12/03 03:51:07;;;;;;;1.67;0.30;;;;;;;15.01;53.35;95357.88;5033362;28;20134;-30
2021/12/03 03:53:32;;;;;;;0.50;0.30;;;;;;;15.05;53.27;95355.69;5033350;28;20022;-30
2021/12/03 03:55:57;;;;;;;0.93;0.40;;;;;;;15.03;53.68;95343.72;5033289;28;20033;-30
2021/12/03 03:58:23;;;;;;;2.00;0.50;;;;;;;15.07;53.31;95336.84;5033199;28;20041;-30
2021/12/03 04:00:49;;;;;;;0.57;0.30;;;;;;;15.04;53.26;95337.03;5033489;28;20032;-30
2021/12/03 04:03:14;;;;;;;1.30;0.40;;;;;;;15.08;53.49;95343.78;5033252;28;20099;-30
2021/12/03 04:05:40;;;;;;;3.88;0.45;;;;;;;14.99;53.53;95356.84;5033521;28;20021;-30
2021/12/03 04:08:06;;;;;;;0.75;0.35;;;;;;;15.01;53.46;95346.19;5033473;28;20036;-30
2021/12/03 04:10:32;;;;;;;1.58;0.52;;;;;;;15.00;53.39;95359.09;5033359;28;20021;-30
2021/12/03 04:12:58;;;;;;;0.52;0.30;;;;;;;15.05;53.19;95366.59;5033117;28;20051;-30
2021/12/03 04:15:24;;;;;;;1.63;0.40;;;;;;;15.02;53.35;95373.00;5033244;28;20025;-30
2021/12/03 04:17:50;;;;;;;0.63;0.43;;;;;;;15.03;53.33;95360.13;5033121;28;20078;-30
2021/12/03 04:20:18;;;;;;;0.60;0.30;;;;;;;15.02;53.21;95366.81;5033112;28;20481;-30
2021/12/03 04:22:44;;;;;;;0.90;0.40;;;;;;;15.03;53.24;95373.78;5033109;28;20051;-30
2021/12/03 04:25:15;;;;;;;0.40;0.30;;;;;;;15.00;53.30;95369.25;5032873;28;20025;-30
2021/12/03 04:27:43;;;;;;;2.22;0.65;;;;;;;15.01;53.25;95357.09;5033012;28;20052;-30
2021/12/03 04:30:15;;;;;;;1.15;0.57;;;;;;;15.04;52.78;95348.72;5033567;28;20365;-30
2021/12/03 04:32:40;;;;;;;0.88;0.60;;;;;;;15.01;53.00;95365.31;5033116;28;20030;-30
2021/12/03 04:35:07;;;;;;;1.15;0.40;;;;;;;15.01;53.09;95371.50;5033022;28;20037;-30
2021/12/03 04:37:32;;;;;;;1.35;0.50;;;;;;;15.02;53.18;95380.47;5031424;28;20033;-30
2021/12/03 04:39:58;;;;;;;1.63;0.32;;;;;;;15.04;53.05;95386.19;5032932;28;20036;-30
2021/12/03 04:42:23;;;;;;;1.15;0.50;;;;;;;15.02;52.98;95394.84;5033114;28;20029;-30
2021/12/03 04:44:49;;;;;;;1.27;0.52;;;;;;;14.99;52.87;95408.72;5033041;28;20029;-30
2021/12/03 04:47:14;;;;;;;1.27;0.50;;;;;;;15.04;53.22;95397.13;5031547;28;20053;-30
2021/12/03 04:49:40;;;;;;;1.67;0.57;;;;;;;14.99;53.04;95401.28;5032705;28;20021;-30
2021/12/03 04:52:06;;;;;;;0.93;0.50;;;;;;;14.99;52.91;95404.00;5032594;28;20383;-30
2021/12/03 04:54:32;;;;;;;1.08;0.50;;;;;;;15.03;52.96;95403.81;5032751;28;20078;-30
2021/12/03 04:56:58;;;;;;;2.33;0.60;;;;;;;15.02;52.85;95405.78;5032745;28;20079;-29
2021/12/03 04:59:24;;;;;;;0.95;0.50;;;;;;;15.00;52.62;95408.22;5032836;28;20021;-30
2021/12/03 05:01:54;;;;;;;0.52;0.40;;;;;;;15.02;52.69;95410.50;5034192;28;20029;-30
2021/12/03 05:04:19;;;;;;;1.05;0.55;;;;;;;14.95;52.79;95405.47;5036327;28;20143;-30
2021/12/03 05:07:03;;;;;;;1.23;0.50;;;;;;;14.98;52.67;95412.66;5036102;28;20487;-30
2021/12/03 05:09:29;;;;;;;2.55;0.55;;;;;;;14.98;52.57;95420.84;5036331;28;20356;-30
2021/12/03 05:11:54;;;;;;;1.77;0.50;;;;;;;14.90;53.07;95415.06;5034877;28;20024;-30
2021/12/03 05:14:20;;;;;;;0.73;0.40;;;;;;;14.91;52.95;95407.63;5035981;28;20029;-30
2021/12/03 05:16:48;;;;;;;1.67;0.38;;;;;;;14.96;52.83;95406.97;5036271;28;20430;-30
2021/12/03 05:19:14;;;;;;;0.80;0.45;;;;;;;14.92;53.34;95414.59;5035968;28;20464;-30
2021/12/03 05:21:40;;;;;;;2.58;0.40;;;;;;;14.96;52.87;95418.59;5035979;28;20025;-30
2021/12/03 05:24:05;;;;;;;0.95;0.40;;;;;;;14.88;52.68;95414.78;5036064;28;20022;-30
2021/12/03 05:26:31;;;;;;;1.73;0.50;;;;;;;14.93;52.69;95416.09;5035983;28;20479;-30
2021/12/03 05:28:56;;;;;;;1.00;0.57;;;;;;;14.91;52.92;95415.81;5036218;28;20036;-30
2021/12/03 05:31:22;;;;;;;1.90;0.82;;;;;;;14.91;52.96;95426.75;5036016;28;20025;-30
2021/12/03 05:33:47;;;;;;;0.77;0.43;;;;;;;14.97;52.63;95435.75;5035618;28;20105;-30
2021/12/03 05:36:13;;;;;;;0.77;0.40;;;;;;;14.97;52.57;95435.75;5035715;28;20037;-30
2021/12/03 05:38:39;;;;;;;0.60;0.40;;;;;;;14.92;52.84;95439.16;5035623;28;20100;-30
2021/12/03 05:41:05;;;;;;;0.50;0.40;;;;;;;14.89;53.07;95449.06;5035830;28;20025;-30
2021/12/03 05:43:30;;;;;;;0.82;0.40;;;;;;;14.90;52.84;95461.47;5034475;28;20025;-30
2021/12/03 05:45:55;;;;;;;0.63;0.50;;;;;;;14.88;53.01;95460.44;5035975;28;20471;-30
2021/12/03 05:48:21;;;;;;;1.60;0.80;;;;;;;14.87;52.94;95475.31;5035555;28;20079;-30
2021/12/03 05:50:47;;;;;;;1.30;0.68;;;;;;;14.95;52.58;95488.13;5034775;28;20460;-30
2021/12/03 05:53:14;;;;;;;0.73;0.50;;;;;;;15.00;52.21;95483.94;5033382;28;20036;-30
2021/12/03 05:55:39;;;;;;;2.13;0.60;;;;;;;14.94;52.26;95486.59;5032464;28;20345;-30
2021/12/03 05:58:05;;;;;;;1.48;0.80;;;;;;;14.91;52.61;95481.34;5033390;28;20107;-30
2021/12/03 06:00:37;;;;;;;0.80;0.50;;;;;;;14.88;52.49;95483.03;5033477;28;20118;-30
2021/12/03 06:03:04;;;;;;;1.50;0.68;;;;;;;14.95;52.37;95477.19;5031949;28;20489;-30
2021/12/03 06:05:30;;;;;;;0.60;0.40;;;;;;;14.91;52.68;95486.81;5033078;28;20455;-30
2021/12/03 06:07:57;;;;;;;1.17;0.60;;;;;;;14.87;52.50;95487.00;5032310;28;20026;-30
2021/12/03 06:10:22;;;;;;;0.90;0.40;;;;;;;14.97;52.27;95502.00;5033394;28;20037;-30
2021/12/03 06:12:49;;;;;;;1.08;0.45;;;;;;;14.94;52.20;95511.19;5032984;28;20029;-30
2021/12/03 06:15:16;;;;;;;1.98;0.52;;;;;;;14.92;52.14;95510.16;5033038;28;20041;-30
2021/12/03 06:17:42;;;;;;;2.45;0.63;;;;;;;14.91;52.33;95509.41;5033024;28;20072;-30
2021/12/03 06:20:09;;;;;;;0.65;0.52;;;;;;;14.82;52.79;95512.25;5032753;28;20056;-30
2021/12/03 06:22:35;;;;;;;2.53;0.70;;;;;;;14.89;52.36;95517.31;5033023;28;20079;-30
2021/12/03 06:25:01;;;;;;;0.88;0.50;;;;;;;14.95;52.25;95528.31;5033066;28;20407;-30
2021/12/03 06:27:30;;;;;;;2.10;0.55;;;;;;;14.95;51.82;95528.31;5032710;28;20108;-30
2021/12/03 06:29:56;;;;;;;2.03;0.50;;;;;;;14.92;52.20;95540.19;5032906;28;20029;-30
2021/12/03 06:32:21;;;;;;;1.58;0.70;;;;;;;14.91;52.18;95546.88;5033012;28;20033;-30
2021/12/03 06:34:47;;;;;;;2.38;1.30;;;;;;;14.84;52.15;95553.47;5032888;28;20538;-30
2021/12/03 06:37:12;;;;;;;3.15;1.40;;;;;;;14.91;52.18;95558.53;5032780;28;20029;-30
2021/12/03 06:39:38;;;;;;;1.92;1.35;;;;;;;14.87;52.12;95557.97;5032407;28;20732;-30
2021/12/03 06:42:04;;;;;;;2.05;1.00;;;;;;;14.90;52.10;95567.19;5032362;28;20056;-30
2021/12/03 06:44:30;;;;;;;1.85;1.00;;;;;;;14.81;52.37;95570.06;5032382;28;20025;-30
2021/12/03 06:46:56;;;;;;;1.55;0.90;;;;;;;14.77;52.40;95572.22;5032606;28;20398;-30
2021/12/03 06:49:22;;;;;;;1.92;1.08;;;;;;;14.80;52.48;95574.75;5032572;28;20107;-30
2021/12/03 06:51:51;;;;;;;1.05;0.95;;;;;;;14.80;52.53;95580.22;5032248;28;20025;-30
2021/12/03 06:54:29;;;;;;;1.60;1.00;;;;;;;14.87;51.72;95588.00;5032267;28;20049;-30
2021/12/03 06:56:55;;;;;;;2.30;0.98;;;;;;;14.83;52.20;95598.38;5032491;28;20049;-30
2021/12/03 06:59:22;;;;;;;3.40;1.25;;;;;;;14.82;52.34;95598.84;5032251;28;20053;-30
2021/12/03 07:01:48;;;;;;;1.98;1.30;;;;;;;14.87;52.07;95604.38;5032291;28;20032;-30
2021/12/03 07:04:13;;;;;;;2.08;1.15;;;;;;;14.84;52.47;95599.13;5030907;28;20087;-30
2021/12/03 07:06:39;;;;;;;2.10;1.23;;;;;;;14.85;52.13;95595.16;5032423;28;20463;-31
2021/12/03 07:09:05;;;;;;;2.20;1.15;;;;;;;14.74;52.38;95603.94;5031008;28;20029;-31
2021/12/03 07:11:31;;;;;;;1.65;1.08;;;;;;;14.92;52.00;95611.16;5032120;28;20021;-30
2021/12/03 07:13:57;;;;;;;1.90;1.20;;;;;;;14.87;52.02;95614.56;5032041;28;20040;-30
2021/12/03 07:16:22;;;;;;;2.83;1.40;;;;;;;14.86;52.10;95623.97;5031896;28;20033;-30
2021/12/03 07:18:50;;;;;;;2.05;1.10;;;;;;;14.85;51.95;95622.47;5032500;28;20029;-30
2021/12/03 07:21:15;;;;;;;2.00;1.30;;;;;;;14.93;51.97;95629.81;5032155;28;20033;-30
2021/12/03 07:23:41;;;;;;;2.42;1.27;;;;;;;14.91;52.04;95643.16;5030460;28;20021;-30
2021/12/03 07:26:07;;;;;;;2.95;1.35;;;;;;;14.90;52.24;95643.63;5031792;28;20396;-30
2021/12/03 07:28:34;;;;;;;1.77;1.02;;;;;;;14.82;52.41;95648.75;5031918;28;20057;-30
2021/12/03 07:31:00;;;;;;;1.95;0.90;;;;;;;14.88;52.24;95652.28;5030593;28;20048;-30
2021/12/03 07:33:28;;;;;;;1.83;1.00;;;;;;;14.92;52.24;95652.13;5031889;28;20466;-30
2021/12/03 07:35:54;;;;;;;2.17;1.10;;;;;;;14.87;52.27;95650.03;5031960;28;20034;-30
2021/12/03 07:38:19;;;;;;;1.88;0.90;;;;;;;14.77;52.26;95654.84;5031677;28;20033;-30
2021/12/03 07:40:46;;;;;;;1.45;0.95;;;;;;;14.87;52.23;95661.72;5021265;28;20030;-30
2021/12/03 07:43:12;;;;;;;2.95;1.10;;;;;;;14.84;52.47;95659.91;5011838;28;20104;-30
2021/12/03 07:45:37;;;;;;;1.42;1.00;;;;;;;14.81;52.51;95654.66;5011983;28;20040;-30
2021/12/03 07:48:06;;;;;;;1.48;0.88;;;;;;;14.85;52.41;95655.97;5011940;28;20025;-30
2021/12/03 07:50:35;;;;;;;1.85;1.00;;;;;;;14.87;52.28;95667.16;5011865;28;20021;-30
2021/12/03 07:53:01;;;;;;;2.22;1.20;;;;;;;14.79;52.47;95665.31;5011729;28;20030;-30
2021/12/03 07:55:26;;;;;;;1.63;0.90;;;;;;;14.80;52.65;95667.56;5011942;28;20472;-30
2021/12/03 07:57:52;;;;;;;1.45;0.90;;;;;;;14.85;52.46;95666.13;5011555;28;20101;-30
2021/12/03 08:00:18;;;;;;;3.67;1.30;;;;;;;14.84;52.39;95667.34;5011854;28;20060;-30
2021/12/03 08:02:44;;;;;;;1.55;0.90;;;;;;;14.87;52.24;95669.16;5026642;28;20065;-30
2021/12/03 08:05:09;;;;;;;1.73;1.10;;;;;;;14.86;52.39;95673.09;5031538;28;20024;-30
2021/12/03 08:07:35;;;;;;;1.92;0.98;;;;;;;14.85;52.46;95674.31;5030073;28;20076;-30
2021/12/03 08:10:01;;;;;;;2.75;0.95;;;;;;;14.76;52.97;95679.88;5031228;28;20542;-30
2021/12/03 08:12:26;;;;;;;1.80;1.02;;;;;;;14.82;52.74;95680.75;5031239;28;20364;-30
2021/12/03 08:14:52;;;;;;;1.10;0.77;;;;;;;14.87;52.51;95685.53;5031323;28;20021;-30
2021/12/03 08:17:17;;;;;;;1.40;1.17;;;;;;;14.85;52.69;95691.44;5063056;28;20025;-30
2021/12/03 08:19:42;;;;;;;1.27;0.90;;;;;;;14.90;52.47;95698.25;5031527;28;20041;-30
2021/12/03 08:22:08;;;;;;;2.78;0.77;;;;;;;14.87;52.37;95699.94;5032418;28;20024;-30
2021/12/03 08:24:34;;;;;;;2.67;0.85;;;;;;;14.84;52.66;95691.91;5032083;28;20025;-30
2021/12/03 08:27:00;;;;;;;2.10;0.90;;;;;;;14.82;52.77;95697.88;5030470;28;20207;-30
2021/12/03 08:29:27;;;;;;;3.72;1.00;;;;;;;14.76;53.05;95715.38;5032083;28;20025;-30
2021/12/03 08:31:52;;;;;;;1.85;0.68;;;;;;;14.84;52.66;95724.69;5029374;28;20392;-30
2021/12/03 08:34:18;;;;;;;3.08;0.90;;;;;;;14.90;52.61;95717.34;5032835;28;20035;-30
2021/12/03 08:36:43;;;;;;;0.95;0.60;;;;;;;14.86;52.60;95709.34;5034364;28;20037;-30
2021/12/03 08:39:09;;;;;;;1.88;0.75;;;;;;;14.87;52.63;95712.81;5036843;28;20477;-30
2021/12/03 08:41:35;;;;;;;1.25;0.77;;;;;;;14.89;52.57;95718.56;5036708;28;20022;-30
2021/12/03 08:44:02;;;;;;;2.13;0.85;;;;;;;14.91;52.71;95727.81;5036741;28;20025;-30
2021/12/03 08:46:33;;;;;;;1.70;0.88;;;;;;;14.94;52.51;95726.88;5036882;28;20455;-30
2021/12/03 08:49:35;;;;;;;1.52;1.00;;;;;;;14.77;53.17;95734.00;5036679;28;20395;-30
2021/12/03 08:52:20;;;;;;;2.35;1.23;;;;;;;14.74;52.98;95735.69;5035434;28;20041;-30
2021/12/03 08:57:15;;;;;;;3.03;1.52;;;;;;;14.74;53.24;95724.03;5036499;28;20030;-30
2021/12/03 08:59:40;;;;;;;3.35;1.75;;;;;;;14.77;53.06;95739.47;5036748;28;20032;-30
2021/12/03 09:02:06;;;;;;;3.10;1.80;;;;;;;13.35;55.79;95740.31;5034725;28;20022;-30
2021/12/03 09:04:32;;;;;;;5.15;2.33;;;;;;;13.95;54.06;95738.16;5035809;28;20398;-30
2021/12/03 09:06:58;;;;;;;4.85;2.65;;;;;;;14.37;52.86;95729.78;5036204;28;20052;-29
2021/12/03 09:09:25;;;;;;;5.20;1.92;;;;;;;14.14;52.55;95738.03;5036193;28;20063;-29
2021/12/03 09:11:51;;;;;;;5.22;1.85;;;;;;;14.62;52.61;95728.53;5036091;28;20033;-29
2021/12/03 09:14:23;;;;;;;4.05;2.00;;;;;;;14.77;52.08;95733.25;5036192;28;20025;-29
2021/12/03 09:16:56;;;;;;;3.75;1.80;;;;;;;14.73;52.24;95738.91;5036000;28;20025;-29
2021/12/03 09:19:34;;;;;;;3.63;2.03;;;;;;;14.69;52.48;95744.56;5036383;28;20033;-29
2021/12/03 09:22:00;;;;;;;3.15;1.83;;;;;;;14.73;52.25;95750.56;5036134;28;20028;-29
2021/12/03 09:24:35;;;;;;;3.53;1.75;;;;;;;14.72;52.08;95749.06;5035989;28;20017;-29
2021/12/03 09:27:01;;;;;;;3.22;1.67;;;;;;;14.73;52.09;95753.28;5034741;28;20063;-29
2021/12/03 09:29:31;;;;;;;3.03;1.65;;;;;;;14.72;52.36;95761.94;5035746;28;20053;-29
2021/12/03 09:31:58;;;;;;;3.28;1.80;;;;;;;14.72;52.36;95759.22;5035875;28;20101;-29
2021/12/03 09:34:24;;;;;;;4.38;1.80;;;;;;;14.72;52.24;95762.72;5035741;28;20377;-29
2021/12/03 09:36:51;;;;;;;3.45;1.38;;;;;;;14.73;52.24;95771.66;5035763;28;20388;-29
2021/12/03 09:39:22;;;;;;;1.95;1.48;;;;;;;14.65;52.39;95770.53;5035586;28;20028;-29
2021/12/03 09:41:50;;;;;;;2.00;1.33;;;;;;;14.72;52.13;95789.25;5035431;28;20034;-29
2021/12/03 09:44:16;;;;;;;2.03;1.13;;;;;;;14.81;52.01;95788.44;5035619;28;20026;-29
2021/12/03 09:46:42;;;;;;;3.53;1.40;;;;;;;14.77;52.07;95791.34;5035140;28;20026;-29
2021/12/03 09:54:35;;;;;;;1.77;1.08;;;;;;;14.48;52.70;95792.03;5035402;28;20026;-29
2021/12/03 09:57:09;;;;;;;2.05;1.33;;;;;;;14.79;52.11;95790.88;5035278;28;20047;-29
2021/12/03 10:00:03;;;;;;;3.53;1.67;;;;;;;14.93;51.66;95804.53;5035193;28;20084;-29
2021/12/03 10:06:18;;;;;;;2.85;1.25;;;;;;;14.76;51.71;95791.78;5035541;28;20468;-29
2021/12/03 10:16:04;;;;;;;1.92;1.10;;;;;;;14.72;52.09;95791.97;5034894;28;20033;-29
2021/12/03 10:27:44;;;;;;;1.60;1.00;;;;;;;14.87;51.44;95803.66;5034931;28;20051;-29
2021/12/03 10:41:16;;;;;;;1.85;0.93;;;;;;;14.79;51.88;95810.72;5012886;28;20069;-29
2021/12/03 11:30:52;;;;;;;5.50;1.60;;;;;;;14.76;51.73;95794.53;5011850;28;20018;-29
2021/12/03 12:44:30;;;;;;;3.22;2.20;;;;;;;14.92;51.41;95854.91;5032926;28;20120;-29
2021/12/03 13:13:49;;;;;;;2.38;2.00;;;;;;;14.90;51.42;95859.31;5014717;28;20030;-29
2021/12/03 14:05:30;;;;;;;2.45;1.92;;;;;;;14.70;51.81;95920.00;5033679;28;20136;-29
2021/12/03 14:37:39;;;;;;;3.55;1.70;;;;;;;14.50;51.54;95947.09;5032577;28;20013;-29
2021/12/03 14:40:21;;;;;;;1.75;1.30;;;;;;;14.57;51.57;95949.47;5032589;28;20025;-29
2021/12/03 14:51:13;;;;;;;3.40;2.00;;;;;;;14.83;50.89;95949.78;5019783;28;20439;-29
2021/12/03 14:56:20;;;;;;;3.08;1.70;;;;;;;14.73;51.10;95968.16;5012107;28;20473;-29
2021/12/03 14:58:53;;;;;;;3.92;1.52;;;;;;;14.76;50.67;95971.94;5012436;28;20050;-29
2021/12/03 15:01:29;;;;;;;;;;;;;;;14.79;50.74;95976.47;5011147;28;20026;-29
2021/12/03 15:06:31;;;;;;;5.43;2.30;;;;;;;14.82;50.50;95976.31;5012436;28;20026;-29
2021/12/03 15:09:01;;;;;;;3.97;2.00;;;;;;;14.79;50.51;95979.97;5011158;28;20037;-29
2021/12/03 15:22:17;;;;;;;7.13;2.50;;;;;;;14.86;50.20;95987.81;5011844;28;20435;-29
2021/12/03 15:32:43;;;;;;;5.28;2.53;;;;;;;14.80;50.29;96006.06;5011294;28;20450;-29
2021/12/03 15:35:39;;;;;;;3.70;2.20;;;;;;;14.80;50.46;96006.06;5012180;28;20029;-29
2021/12/03 15:57:13;;;;;;;2.70;1.65;;;;;;;14.88;49.71;96031.03;5018759;28;20127;-29
2021/12/03 16:05:34;;;;;;;2.42;1.52;;;;;;;14.71;49.85;96052.50;5031558;28;20128;-29
2021/12/03 16:08:15;;;;;;;2.28;1.50;;;;;;;14.85;49.75;96061.97;5031100;28;20781;-29
2021/12/03 16:11:07;;;;;;;3.22;1.70;;;;;;;14.82;49.63;96060.19;5031383;28;20026;-29
2021/12/03 16:13:59;;;;;;;3.03;1.80;;;;;;;14.81;49.75;96062.16;5031214;28;20057;-29
2021/12/03 16:22:42;;;;;;;3.17;1.92;;;;;;;14.81;49.64;96075.81;5031464;28;20121;-29
2021/12/03 16:45:00;;;;;;;4.38;2.55;;;;;;;14.81;49.39;96113.28;5030393;28;20028;-29
2021/12/03 16:46:59;;;;;;;3.65;2.40;;;;;;;14.79;49.32;96110.25;5025698;28;20165;-29
2021/12/03 16:52:11;;;;;;;2.33;1.70;;;;;;;14.73;49.42;96127.25;5010838;28;20064;-29
2021/12/03 16:54:47;;;;;;;2.53;1.60;;;;;;;14.63;49.44;96128.50;5010764;28;20034;-29
2021/12/03 16:57:14;;;;;;;1.98;1.40;;;;;;;14.69;49.29;96120.44;5010136;28;20026;-29
2021/12/03 16:59:44;;;;;;;2.30;1.45;;;;;;;14.68;49.29;96138.81;5021408;28;20479;-29
2021/12/03 17:02:19;;;;;;;2.40;1.45;;;;;;;14.81;48.97;96135.13;5035957;28;20454;-29
2021/12/03 17:52:46;;;;;;;2.45;1.60;;;;;;;14.63;48.35;96194.00;5034997;28;20026;-29
2021/12/03 17:58:05;;;;;;;2.53;1.33;;;;;;;14.68;48.33;96196.13;5033550;28;20396;-29
2021/12/03 18:03:38;;;;;;;2.67;1.45;;;;;;;14.78;48.01;96198.81;5014893;28;20080;-29
2021/12/03 18:56:54;;;;;;;7.78;2.30;;;;;;;14.92;47.79;96234.44;5032132;28;20083;-30
2021/12/03 18:59:21;;;;;;;4.07;2.13;;;;;;;15.01;47.70;96236.38;5032052;28;20053;-30
2021/12/03 19:01:48;;;;;;;6.15;2.25;;;;;;;14.94;47.49;96233.97;5017534;28;20087;-30
2021/12/03 19:04:34;;;;;;;3.83;2.17;;;;;;;15.07;47.31;96245.47;5032245;28;20403;-30
2021/12/03 19:12:01;;;;;;;3.10;1.67;;;;;;;15.13;46.91;96240.13;5031906;28;20144;-30
2021/12/03 19:14:31;;;;;;;4.72;1.85;;;;;;;15.06;46.94;96235.75;5031898;28;20056;-30